sensor_id;sensor_type;location;lat;lon;timestamp;pressure;altitude;pressure_sealevel;temperature;humidity
69796;BME280;57073;45.650;9.612;2023-02-28T00:00:25;99735.00;;;6.44;51.87
69796;BME280;57073;45.650;9.612;2023-02-28T02:52:48;99770.34;;;6.14;51.86
69796;BME280;57073;45.650;9.612;2023-02-28T03:02:52;99778.56;;;6.05;53.60
69796;BME280;57073;45.650;9.612;2023-02-28T03:13:03;99767.78;;;5.98;52.39
69796;BME280;57073;45.650;9.612;2023-02-28T03:33:16;99776.06;;;5.72;57.12
69796;BME280;57073;45.650;9.612;2023-02-28T03:43:22;99776.63;;;5.90;57.68
69796;BME280;57073;45.650;9.612;2023-02-28T04:03:30;99788.06;;;5.68;58.57
69796;BME280;57073;45.650;9.612;2023-02-28T04:13:32;99795.81;;;5.46;58.18
69796;BME280;57073;45.650;9.612;2023-02-28T04:23:32;99808.13;;;5.39;57.85
69796;BME280;57073;45.650;9.612;2023-02-28T04:33:33;99811.94;;;5.45;59.68
69796;BME280;57073;45.650;9.612;2023-02-28T04:43:33;99811.06;;;5.61;59.24
69796;BME280;57073;45.650;9.612;2023-02-28T04:53:36;99809.00;;;5.79;58.96
69796;BME280;57073;45.650;9.612;2023-02-28T05:03:36;99812.28;;;5.89;60.17
69796;BME280;57073;45.650;9.612;2023-02-28T05:13:37;99814.25;;;5.87;59.15
69796;BME280;57073;45.650;9.612;2023-02-28T05:23:37;99821.22;;;6.05;59.54
69796;BME280;57073;45.650;9.612;2023-02-28T05:33:37;99820.25;;;5.98;59.73
69796;BME280;57073;45.650;9.612;2023-02-28T05:43:38;99827.78;;;5.86;58.98
69796;BME280;57073;45.650;9.612;2023-02-28T05:53:38;99822.38;;;5.63;60.25
69796;BME280;57073;45.650;9.612;2023-02-28T06:03:39;99823.09;;;5.48;62.02
69796;BME280;57073;45.650;9.612;2023-02-28T06:13:39;99809.16;;;5.30;62.64
69796;BME280;57073;45.650;9.612;2023-02-28T06:23:39;99809.97;;;5.38;61.60
69796;BME280;57073;45.650;9.612;2023-02-28T06:33:40;99827.09;;;5.44;62.36
69796;BME280;57073;45.650;9.612;2023-02-28T06:43:42;99830.28;;;5.79;61.01
69796;BME280;57073;45.650;9.612;2023-02-28T06:53:42;99834.75;;;5.31;62.13
69796;BME280;57073;45.650;9.612;2023-02-28T07:03:43;99849.31;;;5.60;63.01
69796;BME280;57073;45.650;9.612;2023-02-28T07:13:43;99857.78;;;5.71;62.06
69796;BME280;57073;45.650;9.612;2023-02-28T07:23:44;99860.81;;;5.60;61.21
69796;BME280;57073;45.650;9.612;2023-02-28T07:33:44;99864.22;;;5.85;61.81
69796;BME280;57073;45.650;9.612;2023-02-28T07:43:45;99870.00;;;6.05;61.29
69796;BME280;57073;45.650;9.612;2023-02-28T07:53:45;99872.41;;;5.84;61.13
69796;BME280;57073;45.650;9.612;2023-02-28T08:03:46;99878.19;;;6.04;59.50
69796;BME280;57073;45.650;9.612;2023-02-28T08:13:46;99882.38;;;6.29;59.51
69796;BME280;57073;45.650;9.612;2023-02-28T08:23:48;99882.41;;;6.52;57.24
69796;BME280;57073;45.650;9.612;2023-02-28T08:33:49;99883.13;;;6.69;56.52
69796;BME280;57073;45.650;9.612;2023-02-28T08:43:52;99883.97;;;6.93;55.18
69796;BME280;57073;45.650;9.612;2023-02-28T08:53:55;99889.44;;;7.53;54.46
69796;BME280;57073;45.650;9.612;2023-02-28T09:03:58;99885.97;;;8.33;52.92
69796;BME280;57073;45.650;9.612;2023-02-28T09:13:59;99883.47;;;9.05;51.28
69796;BME280;57073;45.650;9.612;2023-02-28T09:24:00;99894.34;;;9.25;49.38
69796;BME280;57073;45.650;9.612;2023-02-28T09:34:01;99893.19;;;9.40;49.93
69796;BME280;57073;45.650;9.612;2023-02-28T09:44:03;99903.66;;;8.86;49.39
69796;BME280;57073;45.650;9.612;2023-02-28T09:54:04;99908.28;;;8.77;49.34
69796;BME280;57073;45.650;9.612;2023-02-28T10:04:16;99907.84;;;8.73;50.32
69796;BME280;57073;45.650;9.612;2023-02-28T10:14:28;99909.00;;;8.86;49.48
69796;BME280;57073;45.650;9.612;2023-02-28T10:24:35;99900.72;;;9.02;50.60
69796;BME280;57073;45.650;9.612;2023-02-28T10:34:39;99907.66;;;9.18;50.40
69796;BME280;57073;45.650;9.612;2023-02-28T10:44:39;99890.94;;;9.37;50.31
69796;BME280;57073;45.650;9.612;2023-02-28T10:54:39;99892.44;;;9.47;49.70
69796;BME280;57073;45.650;9.612;2023-02-28T11:04:40;99880.72;;;9.83;49.45
69796;BME280;57073;45.650;9.612;2023-02-28T11:14:51;99880.25;;;9.72;49.26
69796;BME280;57073;45.650;9.612;2023-02-28T11:24:53;99862.63;;;9.98;48.39
69796;BME280;57073;45.650;9.612;2023-02-28T11:55:27;99818.72;;;10.74;47.58
69796;BME280;57073;45.650;9.612;2023-02-28T12:16:16;99782.09;;;10.33;46.69
69796;BME280;57073;45.650;9.612;2023-02-28T12:36:20;99758.31;;;10.10;46.05
69796;BME280;57073;45.650;9.612;2023-02-28T12:46:34;99737.91;;;10.15;46.24
69796;BME280;57073;45.650;9.612;2023-02-28T12:56:47;99744.16;;;10.43;45.81
69796;BME280;57073;45.650;9.612;2023-02-28T13:47:28;99706.97;;;10.26;42.95
69796;BME280;57073;45.650;9.612;2023-02-28T14:07:43;99682.84;;;10.33;43.25
69796;BME280;57073;45.650;9.612;2023-02-28T14:17:45;99681.41;;;10.50;44.30
69796;BME280;57073;45.650;9.612;2023-02-28T14:28:08;99674.00;;;10.39;43.97
69796;BME280;57073;45.650;9.612;2023-02-28T14:38:18;99662.66;;;10.37;43.43
69796;BME280;57073;45.650;9.612;2023-02-28T14:48:22;99649.84;;;10.39;44.57
69796;BME280;57073;45.650;9.612;2023-02-28T14:58:29;99646.94;;;10.61;45.23
69796;BME280;57073;45.650;9.612;2023-02-28T15:08:31;99635.34;;;10.67;45.05
69796;BME280;57073;45.650;9.612;2023-02-28T15:28:43;99624.81;;;10.59;44.25
69796;BME280;57073;45.650;9.612;2023-02-28T15:38:43;99630.25;;;10.32;44.89
69796;BME280;57073;45.650;9.612;2023-02-28T15:48:54;99609.78;;;10.11;46.12
69796;BME280;57073;45.650;9.612;2023-02-28T15:59:01;99610.19;;;10.14;46.27
69796;BME280;57073;45.650;9.612;2023-02-28T16:09:04;99607.91;;;10.11;45.60
69796;BME280;57073;45.650;9.612;2023-02-28T16:19:05;99603.38;;;9.92;46.23
69796;BME280;57073;45.650;9.612;2023-02-28T16:29:05;99601.50;;;9.86;46.13
69796;BME280;57073;45.650;9.612;2023-02-28T16:39:06;99601.50;;;9.72;47.76
69796;BME280;57073;45.650;9.612;2023-02-28T16:49:11;99606.84;;;9.66;48.04
69796;BME280;57073;45.650;9.612;2023-02-28T16:59:12;99616.50;;;9.47;49.13
69796;BME280;57073;45.650;9.612;2023-02-28T17:09:22;99622.66;;;9.40;47.77
69796;BME280;57073;45.650;9.612;2023-02-28T17:19:23;99624.66;;;9.25;49.19
69796;BME280;57073;45.650;9.612;2023-02-28T17:29:23;99624.00;;;9.16;48.83
69796;BME280;57073;45.650;9.612;2023-02-28T17:39:24;99634.34;;;9.26;48.30
69796;BME280;57073;45.650;9.612;2023-02-28T17:49:24;99630.19;;;9.10;50.03
69796;BME280;57073;45.650;9.612;2023-02-28T17:59:25;99637.94;;;8.98;50.21
69796;BME280;57073;45.650;9.612;2023-02-28T18:09:26;99625.59;;;8.97;49.96
69796;BME280;57073;45.650;9.612;2023-02-28T18:19:34;99630.19;;;9.17;48.78
69796;BME280;57073;45.650;9.612;2023-02-28T18:29:35;99624.84;;;9.17;48.56
69796;BME280;57073;45.650;9.612;2023-02-28T18:39:37;99630.53;;;9.00;49.97
69796;BME280;57073;45.650;9.612;2023-02-28T18:49:37;99622.91;;;9.04;49.93
69796;BME280;57073;45.650;9.612;2023-02-28T18:59:37;99630.41;;;8.80;50.53
69796;BME280;57073;45.650;9.612;2023-02-28T19:09:38;99629.72;;;8.65;51.38
69796;BME280;57073;45.650;9.612;2023-02-28T19:19:38;99628.69;;;8.38;53.15
69796;BME280;57073;45.650;9.612;2023-02-28T19:29:38;99633.53;;;8.28;53.29
69796;BME280;57073;45.650;9.612;2023-02-28T19:39:42;99641.22;;;8.09;54.64
69796;BME280;57073;45.650;9.612;2023-02-28T19:49:42;99640.31;;;8.02;54.00
69796;BME280;57073;45.650;9.612;2023-02-28T19:59:43;99642.00;;;7.81;54.21
69796;BME280;57073;45.650;9.612;2023-02-28T20:09:43;99636.03;;;7.64;54.88
69796;BME280;57073;45.650;9.612;2023-02-28T20:19:44;99647.59;;;7.50;55.01
69796;BME280;57073;45.650;9.612;2023-02-28T20:29:45;99646.28;;;7.61;54.37
69796;BME280;57073;45.650;9.612;2023-02-28T20:39:45;99649.41;;;7.28;56.07
69796;BME280;57073;45.650;9.612;2023-02-28T20:49:45;99665.31;;;7.36;55.34
69796;BME280;57073;45.650;9.612;2023-02-28T20:59:46;99659.44;;;7.26;55.30
69796;BME280;57073;45.650;9.612;2023-02-28T21:09:46;99669.75;;;7.14;56.31
69796;BME280;57073;45.650;9.612;2023-02-28T21:19:46;99660.06;;;7.28;54.84
69796;BME280;57073;45.650;9.612;2023-02-28T21:29:46;99660.00;;;7.36;55.30
69796;BME280;57073;45.650;9.612;2023-02-28T21:39:47;99653.22;;;7.04;55.91
69796;BME280;57073;45.650;9.612;2023-02-28T21:49:47;99652.47;;;6.95;56.46
69796;BME280;57073;45.650;9.612;2023-02-28T21:59:47;99642.25;;;7.14;56.52
69796;BME280;57073;45.650;9.612;2023-02-28T22:09:48;99648.81;;;6.96;56.54
69796;BME280;57073;45.650;9.612;2023-02-28T22:19:48;99654.88;;;6.90;56.82
69796;BME280;57073;45.650;9.612;2023-02-28T22:29:48;99655.34;;;6.79;57.56
69796;BME280;57073;45.650;9.612;2023-02-28T22:39:49;99665.91;;;6.87;57.04
69796;BME280;57073;45.650;9.612;2023-02-28T22:49:49;99664.72;;;6.89;55.86
69796;BME280;57073;45.650;9.612;2023-02-28T22:59:50;99671.50;;;6.92;57.15
69796;BME280;57073;45.650;9.612;2023-02-28T23:09:50;99662.97;;;6.82;56.35
69796;BME280;57073;45.650;9.612;2023-02-28T23:19:50;99664.06;;;6.87;55.89
69796;BME280;57073;45.650;9.612;2023-02-28T23:29:51;99670.22;;;6.73;56.74
69796;BME280;57073;45.650;9.612;2023-02-28T23:39:51;99662.75;;;6.68;56.31
69796;BME280;57073;45.650;9.612;2023-02-28T23:49:52;99666.88;;;6.56;55.55
69796;BME280;57073;45.650;9.612;2023-02-28T23:59:52;99655.88;;;6.59;55.03
